Time;durP1;ratioP1;P1;durP2;ratioP2;P2;SDS_P1;SDS_P2;PMS_P1;PMS_P2;Temp;Humidity;BMP_temperature;BMP_pressure;BME280_temperature;BME280_humidity;BME280_pressure;Samples;Min_cycle;Max_cycle;Signal;HPM_P1;HPM_P2
2023/08/21 00:00:55;;;;;;;8.50;2.65;;;17.10;99.90;;;;;;5082574;28;20094;-74
2023/08/21 00:03:21;;;;;;;9.95;3.30;;;17.10;99.90;;;;;;5064903;28;20043;-74
2023/08/21 00:05:47;;;;;;;8.75;2.83;;;17.10;99.90;;;;;;5095435;28;20547;-74
2023/08/21 00:08:12;;;;;;;9.70;3.28;;;17.10;99.90;;;;;;5096005;28;20036;-74
2023/08/21 00:10:38;;;;;;;10.07;2.90;;;17.10;99.90;;;;;;5092293;28;20044;-75
2023/08/21 00:13:05;;;;;;;13.63;3.42;;;17.10;99.90;;;;;;5078792;28;20101;-74
2023/08/21 00:15:31;;;;;;;9.98;2.90;;;17.00;99.90;;;;;;5082152;28;20045;-73
2023/08/21 00:17:56;;;;;;;7.10;2.95;;;17.00;99.90;;;;;;5081965;28;20051;-75
2023/08/21 00:20:22;;;;;;;9.15;3.35;;;17.00;99.90;;;;;;5090913;28;20374;-75
2023/08/21 00:22:47;;;;;;;8.25;3.10;;;17.00;99.90;;;;;;5080878;28;20557;-75
2023/08/21 00:25:13;;;;;;;10.35;3.38;;;17.00;99.90;;;;;;5085389;28;20040;-74
2023/08/21 00:27:39;;;;;;;10.20;3.30;;;16.90;99.90;;;;;;5068064;28;20048;-74
2023/08/21 00:30:05;;;;;;;13.63;3.50;;;16.90;99.90;;;;;;5082267;28;20033;-74
2023/08/21 00:32:31;;;;;;;9.52;3.47;;;16.90;99.90;;;;;;5074951;28;20453;-75
2023/08/21 00:34:56;;;;;;;10.88;3.00;;;16.80;99.90;;;;;;5074124;28;20127;-75
2023/08/21 00:37:22;;;;;;;8.07;2.95;;;16.80;99.90;;;;;;5088696;28;20489;-74
2023/08/21 00:39:47;;;;;;;10.48;3.45;;;16.90;99.90;;;;;;5093081;28;20040;-75
2023/08/21 00:42:13;;;;;;;10.30;3.38;;;16.90;99.90;;;;;;5093370;28;20170;-75
2023/08/21 00:44:39;;;;;;;12.00;4.00;;;16.90;99.90;;;;;;5091027;28;20478;-74
2023/08/21 00:47:05;;;;;;;12.25;3.53;;;16.80;99.90;;;;;;5092107;28;20453;-75
2023/08/21 00:49:31;;;;;;;12.63;3.75;;;16.80;99.90;;;;;;5094596;28;20382;-75
2023/08/21 00:51:56;;;;;;;13.25;3.83;;;16.80;99.90;;;;;;5082968;28;20126;-75
2023/08/21 00:54:22;;;;;;;11.00;3.53;;;16.70;99.90;;;;;;5084485;28;20063;-75
2023/08/21 00:56:48;;;;;;;9.70;3.42;;;16.70;99.90;;;;;;5094742;28;20500;-75
2023/08/21 00:59:14;;;;;;;13.45;3.50;;;16.70;99.90;;;;;;5096181;28;20046;-74
2023/08/21 01:01:40;;;;;;;9.85;3.20;;;16.70;99.90;;;;;;5076781;28;20049;-75
2023/08/21 01:04:06;;;;;;;16.35;3.78;;;16.70;99.90;;;;;;5084618;28;20044;-75
2023/08/21 01:06:32;;;;;;;9.85;3.70;;;16.60;99.90;;;;;;5079695;28;20089;-75
2023/08/21 01:09:07;;;;;;;12.05;3.40;;;16.60;99.90;;;;;;5083560;28;20119;-74
2023/08/21 01:11:50;;;;;;;10.32;3.55;;;16.50;99.90;;;;;;5078013;28;20043;-75
2023/08/21 01:14:22;;;;;;;10.05;3.58;;;16.50;99.90;;;;;;5101572;28;20078;-75
2023/08/21 01:16:54;;;;;;;8.55;3.53;;;16.50;99.90;;;;;;5089335;28;20054;-75
2023/08/21 01:19:36;;;;;;;12.38;3.70;;;16.40;99.90;;;;;;5089657;28;20055;-74
2023/08/21 01:22:02;;;;;;;12.13;4.25;;;16.40;99.90;;;;;;5089102;28;20048;-74
2023/08/21 01:24:27;;;;;;;19.23;4.25;;;16.40;99.90;;;;;;5093018;28;20044;-75
2023/08/21 01:26:53;;;;;;;11.45;3.85;;;16.40;99.90;;;;;;5091777;28;20043;-75
2023/08/21 01:29:19;;;;;;;13.55;3.90;;;16.40;99.90;;;;;;5102771;28;20035;-75
2023/08/21 01:31:52;;;;;;;10.32;3.40;;;16.40;99.90;;;;;;5111699;27;20048;-75
2023/08/21 01:34:18;;;;;;;10.63;3.33;;;16.30;99.90;;;;;;5088437;28;20153;-75
2023/08/21 01:36:45;;;;;;;11.80;3.70;;;16.30;99.90;;;;;;5096195;28;20387;-75
2023/08/21 01:39:11;;;;;;;7.67;3.80;;;16.30;99.90;;;;;;5081775;28;20048;-75
2023/08/21 01:41:37;;;;;;;9.35;3.50;;;16.30;99.90;;;;;;5089097;28;20093;-75
2023/08/21 01:44:03;;;;;;;10.13;3.60;;;16.30;99.90;;;;;;5092797;28;20036;-75
2023/08/21 01:46:29;;;;;;;11.18;4.07;;;16.30;99.90;;;;;;5089127;28;20069;-75
2023/08/21 01:48:54;;;;;;;7.93;3.38;;;16.30;99.90;;;;;;5109716;28;20032;-76
2023/08/21 01:51:20;;;;;;;10.70;3.83;;;16.30;99.90;;;;;;5095292;28;20036;-75
2023/08/21 01:53:47;;;;;;;8.82;3.60;;;16.30;99.90;;;;;;5096301;28;20063;-76
2023/08/21 01:56:12;;;;;;;10.48;4.13;;;16.30;99.90;;;;;;5085050;28;20044;-75
2023/08/21 01:58:38;;;;;;;10.90;3.90;;;16.30;99.90;;;;;;5092529;28;20100;-75
2023/08/21 02:01:04;;;;;;;12.48;3.92;;;16.20;99.90;;;;;;5095227;28;20035;-74
2023/08/21 02:03:30;;;;;;;10.05;3.45;;;16.20;99.90;;;;;;5107524;27;20052;-76
2023/08/21 02:05:57;;;;;;;10.85;3.80;;;16.20;99.90;;;;;;5059027;28;20398;-76
2023/08/21 02:08:34;;;;;;;11.85;3.90;;;16.20;99.90;;;;;;5099466;28;20041;-76
2023/08/21 02:11:00;;;;;;;12.60;3.97;;;16.20;99.90;;;;;;5076205;28;20489;-76
2023/08/21 02:13:26;;;;;;;8.45;3.67;;;16.20;99.90;;;;;;5087415;28;20051;-75
2023/08/21 02:15:52;;;;;;;13.52;4.07;;;16.20;99.90;;;;;;5097018;28;20037;-75
2023/08/21 02:18:17;;;;;;;9.77;4.03;;;16.10;99.90;;;;;;5110937;27;20049;-76
2023/08/21 02:20:46;;;;;;;11.73;3.65;;;16.10;99.90;;;;;;5103397;28;20129;-74
2023/08/21 02:23:12;;;;;;;11.38;4.00;;;16.10;99.90;;;;;;5109694;28;20040;-75
2023/08/21 02:25:37;;;;;;;9.65;4.00;;;16.10;99.90;;;;;;5101942;28;20135;-75
2023/08/21 02:28:04;;;;;;;11.75;4.20;;;16.10;99.90;;;;;;5099735;28;20118;-75
2023/08/21 02:30:29;;;;;;;12.13;3.90;;;16.10;99.90;;;;;;5089179;28;20040;-75
2023/08/21 02:32:55;;;;;;;13.55;4.20;;;16.10;99.90;;;;;;5077756;28;20040;-75
2023/08/21 02:35:21;;;;;;;12.32;4.05;;;16.10;99.90;;;;;;5087073;28;20058;-76
2023/08/21 02:37:47;;;;;;;11.13;3.83;;;16.00;99.90;;;;;;5092050;28;20514;-75
2023/08/21 02:40:12;;;;;;;14.65;4.53;;;16.00;99.90;;;;;;5082554;28;20366;-76
2023/08/21 02:42:38;;;;;;;8.35;3.88;;;16.00;99.90;;;;;;5114442;27;20463;-75
2023/08/21 02:45:08;;;;;;;9.15;3.33;;;16.00;99.90;;;;;;5079388;28;20076;-75
2023/08/21 02:47:40;;;;;;;12.27;3.35;;;16.00;99.90;;;;;;5088357;28;20398;-75
2023/08/21 02:50:07;;;;;;;9.20;4.30;;;16.00;99.90;;;;;;5086386;28;20074;-76
2023/08/21 02:52:34;;;;;;;13.60;4.43;;;15.90;99.90;;;;;;5087257;28;20055;-75
2023/08/21 02:54:59;;;;;;;10.95;4.65;;;15.90;99.90;;;;;;5084715;28;20094;-76
2023/08/21 02:57:26;;;;;;;11.27;4.13;;;15.90;99.90;;;;;;5084698;28;20035;-75
2023/08/21 02:59:52;;;;;;;12.57;4.82;;;15.90;99.90;;;;;;5086638;28;20080;-75
2023/08/21 03:02:18;;;;;;;10.65;4.55;;;15.90;99.90;;;;;;5074868;28;20075;-75
2023/08/21 03:04:44;;;;;;;11.20;4.55;;;15.90;99.90;;;;;;5072932;28;20044;-75
2023/08/21 03:07:10;;;;;;;9.40;4.00;;;15.90;99.90;;;;;;5120714;27;20104;-75
2023/08/21 03:09:37;;;;;;;8.35;3.72;;;15.80;99.90;;;;;;5076006;28;20048;-74
2023/08/21 03:12:03;;;;;;;12.70;4.30;;;15.80;99.90;;;;;;5068302;28;20033;-76
2023/08/21 03:14:28;;;;;;;6.55;3.78;;;15.80;99.90;;;;;;5097615;28;20040;-75
2023/08/21 03:16:54;;;;;;;12.70;3.97;;;15.80;99.90;;;;;;5077107;28;20395;-76
2023/08/21 03:19:20;;;;;;;13.25;4.30;;;15.70;99.90;;;;;;5085878;28;20048;-76
2023/08/21 03:21:45;;;;;;;11.02;3.75;;;15.70;99.90;;;;;;5060745;28;20077;-75
2023/08/21 03:24:11;;;;;;;11.32;3.70;;;15.70;99.90;;;;;;5105301;28;20067;-75
2023/08/21 03:26:37;;;;;;;12.40;3.95;;;15.70;99.90;;;;;;5076696;28;20036;-75
2023/08/21 03:29:03;;;;;;;11.98;4.32;;;15.70;99.90;;;;;;5078429;28;20033;-74
2023/08/21 03:31:29;;;;;;;11.63;4.20;;;15.60;99.90;;;;;;5089570;28;20383;-74
2023/08/21 03:33:55;;;;;;;11.65;4.20;;;15.70;99.90;;;;;;5090141;28;20137;-74
2023/08/21 03:36:23;;;;;;;11.35;4.32;;;15.70;99.90;;;;;;5091252;28;20067;-75
2023/08/21 03:38:49;;;;;;;11.95;4.32;;;15.70;99.90;;;;;;5099271;28;20040;-74
2023/08/21 03:41:15;;;;;;;10.75;4.07;;;15.70;99.90;;;;;;5097311;28;20033;-74
2023/08/21 03:43:43;;;;;;;11.20;4.20;;;15.60;99.90;;;;;;5086934;28;20048;-75
2023/08/21 03:46:09;;;;;;;10.05;3.70;;;15.60;99.90;;;;;;5093300;28;20089;-75
2023/08/21 03:48:34;;;;;;;11.70;4.47;;;15.60;99.90;;;;;;5078719;28;20490;-75
2023/08/21 03:51:00;;;;;;;9.75;4.00;;;15.60;99.90;;;;;;5088860;28;20040;-75
2023/08/21 03:53:26;;;;;;;13.95;3.88;;;15.60;99.90;;;;;;5076566;28;20078;-75
2023/08/21 03:55:52;;;;;;;9.10;3.85;;;15.60;99.90;;;;;;5082479;28;20044;-75
2023/08/21 03:58:17;;;;;;;19.60;4.88;;;15.60;99.90;;;;;;5075245;28;20055;-75
2023/08/21 04:00:43;;;;;;;9.57;3.90;;;15.50;99.90;;;;;;5095638;28;20039;-75
2023/08/21 04:03:09;;;;;;;10.73;4.20;;;15.50;99.90;;;;;;5095304;28;20481;-75
2023/08/21 04:05:34;;;;;;;7.68;3.95;;;15.50;99.90;;;;;;5094897;28;20066;-75
2023/08/21 04:08:00;;;;;;;8.73;4.07;;;15.50;99.90;;;;;;5096184;28;20075;-75
2023/08/21 04:10:25;;;;;;;10.68;3.78;;;15.50;99.90;;;;;;5093644;28;20035;-75
2023/08/21 04:12:51;;;;;;;11.63;4.38;;;15.50;99.90;;;;;;5093538;28;20028;-76
2023/08/21 04:15:17;;;;;;;10.98;3.60;;;15.50;99.90;;;;;;5094027;28;20546;-74
2023/08/21 04:17:42;;;;;;;9.23;3.75;;;15.50;99.90;;;;;;5089185;28;20518;-74
2023/08/21 04:20:08;;;;;;;9.15;3.72;;;15.50;99.90;;;;;;5128061;27;20494;-75
2023/08/21 04:22:34;;;;;;;11.15;4.35;;;15.40;99.90;;;;;;5096590;28;20119;-75
2023/08/21 04:25:01;;;;;;;9.25;3.70;;;15.40;99.90;;;;;;5091187;28;20110;-75
2023/08/21 04:27:26;;;;;;;8.65;3.63;;;15.40;99.90;;;;;;5088130;28;20032;-74
2023/08/21 04:29:53;;;;;;;11.15;4.65;;;15.40;99.90;;;;;;5094707;28;20105;-76
2023/08/21 04:32:19;;;;;;;10.50;4.13;;;15.40;99.90;;;;;;5089923;28;20511;-76
2023/08/21 04:34:44;;;;;;;13.25;3.90;;;15.40;99.90;;;;;;5095261;28;20040;-75
2023/08/21 04:37:10;;;;;;;9.75;4.32;;;15.40;99.90;;;;;;5087612;28;20040;-75
2023/08/21 04:39:36;;;;;;;8.00;3.65;;;15.40;99.90;;;;;;5095402;28;20036;-75
2023/08/21 04:42:02;;;;;;;12.27;4.45;;;15.40;99.90;;;;;;5093906;28;20048;-75
2023/08/21 04:44:27;;;;;;;13.98;4.47;;;15.40;99.90;;;;;;5091868;28;20048;-76
2023/08/21 04:46:53;;;;;;;9.10;4.28;;;15.40;99.90;;;;;;5079872;28;20040;-75
2023/08/21 04:49:19;;;;;;;10.38;4.90;;;15.40;99.90;;;;;;5089978;28;20040;-75
2023/08/21 04:51:44;;;;;;;10.68;4.30;;;15.40;99.90;;;;;;5110577;27;20080;-76
2023/08/21 04:54:10;;;;;;;16.80;6.10;;;15.50;99.90;;;;;;5091112;28;20119;-76
2023/08/21 04:56:35;;;;;;;14.77;7.47;;;15.50;99.90;;;;;;5081473;28;20036;-75
2023/08/21 04:59:02;;;;;;;14.18;5.85;;;15.50;99.90;;;;;;5089760;28;20036;-75
2023/08/21 05:01:28;;;;;;;9.30;4.43;;;15.50;99.90;;;;;;5093453;28;20044;-76
2023/08/21 05:03:54;;;;;;;10.43;4.38;;;15.50;99.90;;;;;;5081360;28;20104;-75
2023/08/21 05:06:20;;;;;;;11.38;4.40;;;15.60;99.90;;;;;;5081821;28;20041;-75
2023/08/21 05:08:45;;;;;;;16.27;5.57;;;15.60;99.90;;;;;;5085859;28;20048;-75
2023/08/21 05:11:11;;;;;;;11.38;4.50;;;15.60;99.90;;;;;;5087122;28;20123;-75
2023/08/21 05:13:37;;;;;;;11.75;4.32;;;15.70;99.90;;;;;;5088990;28;20116;-76
2023/08/21 05:16:03;;;;;;;11.98;3.90;;;15.70;99.90;;;;;;5088815;28;20452;-74
2023/08/21 05:18:28;;;;;;;9.02;3.92;;;15.70;99.90;;;;;;5101839;28;20056;-74
2023/08/21 05:20:55;;;;;;;12.88;3.88;;;15.70;99.90;;;;;;5086773;28;20046;-74
2023/08/21 05:23:21;;;;;;;10.27;4.35;;;15.80;99.90;;;;;;5084567;28;20036;-75
2023/08/21 05:25:49;;;;;;;11.73;4.32;;;15.80;99.90;;;;;;5085132;28;20540;-75
2023/08/21 05:28:14;;;;;;;12.02;4.20;;;15.80;99.90;;;;;;5092442;28;20044;-75
2023/08/21 05:30:40;;;;;;;13.45;4.38;;;15.90;99.90;;;;;;5110695;28;20043;-75
2023/08/21 05:33:06;;;;;;;12.38;3.60;;;15.90;99.90;;;;;;5105407;28;20034;-75
2023/08/21 05:35:35;;;;;;;9.25;3.78;;;16.00;99.90;;;;;;5086216;28;20036;-75
2023/08/21 05:38:02;;;;;;;10.10;3.83;;;16.00;99.90;;;;;;5094051;28;20073;-75
2023/08/21 05:40:28;;;;;;;9.45;3.38;;;16.10;99.90;;;;;;5080161;28;20085;-75
2023/08/21 05:42:54;;;;;;;12.23;3.25;;;16.20;99.90;;;;;;5089626;28;20044;-75
2023/08/21 05:45:19;;;;;;;11.30;3.53;;;16.30;99.90;;;;;;5088497;28;20416;-76
2023/08/21 05:47:45;;;;;;;8.40;3.60;;;16.40;99.90;;;;;;5085384;28;20040;-76
2023/08/21 05:50:11;;;;;;;9.07;3.20;;;16.50;99.90;;;;;;5094270;28;20040;-75
2023/08/21 05:52:36;;;;;;;9.07;3.15;;;16.50;99.90;;;;;;5092548;28;20074;-75
2023/08/21 05:55:02;;;;;;;8.18;3.42;;;16.60;99.90;;;;;;5094748;28;20048;-75
2023/08/21 05:57:28;;;;;;;7.05;2.92;;;16.60;99.90;;;;;;5086430;28;20494;-73
2023/08/21 05:59:53;;;;;;;10.00;3.78;;;16.70;99.90;;;;;;5094083;28;20516;-74
2023/08/21 06:02:19;;;;;;;11.90;3.50;;;16.80;99.90;;;;;;5100554;28;20043;-75
2023/08/21 06:04:45;;;;;;;10.45;3.20;;;16.80;99.90;;;;;;5102976;28;20051;-74
2023/08/21 06:07:12;;;;;;;8.88;3.95;;;17.00;99.90;;;;;;5094629;28;20028;-75
2023/08/21 06:09:38;;;;;;;12.60;3.15;;;17.10;99.90;;;;;;5084414;28;20048;-75
2023/08/21 06:12:04;;;;;;;12.80;3.20;;;17.20;99.90;;;;;;5095362;28;20031;-74
2023/08/21 06:14:30;;;;;;;10.38;3.30;;;17.30;99.90;;;;;;5089648;28;20050;-75
2023/08/21 06:17:03;;;;;;;11.32;3.30;;;17.50;99.90;;;;;;5090263;28;20056;-75
2023/08/21 06:19:29;;;;;;;10.80;3.03;;;17.60;99.90;;;;;;5084463;28;20142;-76
2023/08/21 06:21:56;;;;;;;11.93;2.80;;;17.80;99.90;;;;;;5090640;28;20117;-75
2023/08/21 06:24:22;;;;;;;11.30;2.92;;;18.10;99.90;;;;;;5090889;28;20032;-75
2023/08/21 06:26:48;;;;;;;12.75;2.90;;;18.40;99.90;;;;;;5092719;28;20040;-75
2023/08/21 06:29:14;;;;;;;14.73;3.08;;;18.70;99.90;;;;;;5094484;28;20111;-75
2023/08/21 06:31:40;;;;;;;11.18;3.00;;;19.00;99.90;;;;;;5095346;28;20068;-74
2023/08/21 06:34:05;;;;;;;9.57;2.70;;;19.40;99.90;;;;;;5094182;28;20093;-74
2023/08/21 06:36:31;;;;;;;9.13;2.42;;;19.70;99.90;;;;;;5098978;28;20078;-74
2023/08/21 06:38:57;;;;;;;8.00;2.20;;;20.00;99.90;;;;;;5097740;28;20040;-75
2023/08/21 06:41:22;;;;;;;9.02;2.88;;;20.30;99.90;;;;;;5094433;28;20812;-74
2023/08/21 06:43:48;;;;;;;8.13;2.28;;;20.50;99.90;;;;;;5095212;28;20389;-74
2023/08/21 06:46:14;;;;;;;7.72;2.25;;;20.70;99.90;;;;;;5085115;28;20233;-73
2023/08/21 06:48:43;;;;;;;6.00;2.22;;;20.80;99.90;;;;;;5070241;28;20336;-74
2023/08/21 06:51:09;;;;;;;6.93;2.28;;;20.80;99.90;;;;;;5089789;28;20364;-73
2023/08/21 06:53:35;;;;;;;6.82;2.28;;;20.80;99.90;;;;;;5083874;28;20044;-74
2023/08/21 06:56:01;;;;;;;9.73;2.35;;;20.90;99.90;;;;;;5089147;28;20044;-73
2023/08/21 06:58:26;;;;;;;5.53;1.73;;;21.00;99.90;;;;;;5069145;28;20036;-73
2023/08/21 07:00:54;;;;;;;7.15;1.83;;;21.10;99.90;;;;;;5092616;28;20043;-74
2023/08/21 07:03:20;;;;;;;7.25;1.65;;;21.20;99.90;;;;;;5092089;28;20036;-74
2023/08/21 07:06:00;;;;;;;7.70;2.38;;;21.30;99.90;;;;;;5095625;28;20044;-74
2023/08/21 07:08:26;;;;;;;8.35;1.80;;;21.30;99.90;;;;;;5083393;28;20040;-74
2023/08/21 07:10:52;;;;;;;5.15;1.60;;;21.30;99.90;;;;;;5093008;28;20036;-74
2023/08/21 07:13:19;;;;;;;5.20;1.70;;;21.30;99.90;;;;;;5098529;28;20076;-73
2023/08/21 07:15:46;;;;;;;5.93;2.10;;;21.30;99.90;;;;;;5094369;28;20044;-74
2023/08/21 07:18:12;;;;;;;7.82;1.98;;;21.30;99.90;;;;;;5122643;27;20049;-74
2023/08/21 07:20:37;;;;;;;7.03;1.77;;;21.30;99.90;;;;;;5092181;28;20120;-75
2023/08/21 07:23:03;;;;;;;4.93;1.58;;;21.40;99.90;;;;;;5086116;28;20518;-74
2023/08/21 07:25:29;;;;;;;5.00;1.50;;;21.40;99.90;;;;;;5090383;28;20060;-75
2023/08/21 07:27:58;;;;;;;5.63;1.35;;;21.40;99.90;;;;;;5080851;28;20054;-74
2023/08/21 07:30:24;;;;;;;7.32;1.50;;;21.40;99.90;;;;;;5112811;27;20118;-75
2023/08/21 07:32:53;;;;;;;5.68;1.65;;;21.50;99.90;;;;;;5087281;28;20135;-74
2023/08/21 07:35:19;;;;;;;4.40;1.75;;;21.50;99.90;;;;;;5089273;28;20039;-73
2023/08/21 07:37:45;;;;;;;4.63;1.83;;;21.60;99.90;;;;;;5089504;28;20051;-74
2023/08/21 07:40:11;;;;;;;5.38;1.45;;;21.60;99.90;;;;;;5080852;28;20032;-73
2023/08/21 07:42:37;;;;;;;7.90;1.60;;;21.70;99.90;;;;;;5097298;28;20406;-73
2023/08/21 07:45:03;;;;;;;4.57;1.50;;;21.70;99.90;;;;;;5077478;28;20040;-74
2023/08/21 07:47:28;;;;;;;4.57;1.55;;;21.80;99.90;;;;;;5100987;28;20071;-73
2023/08/21 07:49:55;;;;;;;4.78;1.67;;;21.90;99.90;;;;;;5090585;28;20512;-73
2023/08/21 07:52:22;;;;;;;4.00;1.42;;;22.00;99.90;;;;;;5088304;28;20474;-73
2023/08/21 07:54:54;;;;;;;6.22;1.65;;;22.00;99.90;;;;;;5094567;28;20047;-74
2023/08/21 07:57:20;;;;;;;5.47;1.83;;;22.10;99.90;;;;;;5090778;28;20470;-74
2023/08/21 07:59:45;;;;;;;5.22;1.63;;;22.20;99.90;;;;;;5096068;28;20047;-74
2023/08/21 08:02:12;;;;;;;5.28;1.80;;;22.20;99.90;;;;;;5091529;28;20071;-74
2023/08/21 08:04:38;;;;;;;3.72;1.67;;;22.30;99.90;;;;;;5085400;28;20049;-74
2023/08/21 08:07:04;;;;;;;9.05;1.73;;;22.40;99.90;;;;;;5090452;28;20417;-74
2023/08/21 08:09:30;;;;;;;8.02;1.65;;;22.50;99.90;;;;;;5090771;28;20047;-74
2023/08/21 08:11:56;;;;;;;6.50;1.60;;;22.60;99.90;;;;;;5086878;28;20043;-74
2023/08/21 08:14:22;;;;;;;3.78;1.27;;;22.70;99.90;;;;;;5081899;28;20038;-74
2023/08/21 08:16:47;;;;;;;6.30;1.50;;;22.80;99.90;;;;;;5097898;28;20174;-74
2023/08/21 08:19:13;;;;;;;5.60;2.00;;;22.90;99.90;;;;;;5103238;28;20054;-73
2023/08/21 08:21:39;;;;;;;5.03;1.60;;;23.00;99.90;;;;;;5099966;28;20040;-74
2023/08/21 08:24:05;;;;;;;3.33;1.48;;;23.10;99.90;;;;;;5087666;28;20406;-74
2023/08/21 08:26:31;;;;;;;4.85;1.50;;;23.30;99.90;;;;;;5095985;28;20046;-74
2023/08/21 08:28:56;;;;;;;4.07;1.50;;;23.40;99.90;;;;;;5091514;28;20044;-74
2023/08/21 08:31:23;;;;;;;7.75;1.75;;;23.50;99.90;;;;;;5088650;28;20131;-73
2023/08/21 08:33:49;;;;;;;5.80;1.42;;;23.60;99.90;;;;;;5093174;28;20048;-74
2023/08/21 08:36:15;;;;;;;5.25;1.67;;;23.70;99.90;;;;;;5088131;28;20443;-73
2023/08/21 08:38:41;;;;;;;8.70;2.00;;;23.80;99.90;;;;;;5093449;28;20043;-73
2023/08/21 08:41:16;;;;;;;4.57;1.50;;;23.90;99.90;;;;;;5089423;28;20043;-74
2023/08/21 08:43:43;;;;;;;4.93;1.70;;;24.00;99.90;;;;;;5081066;28;20915;-74
2023/08/21 08:46:10;;;;;;;4.45;1.80;;;24.10;99.90;;;;;;5086428;28;20043;-74
2023/08/21 08:48:36;;;;;;;5.93;1.70;;;24.10;99.90;;;;;;5083272;28;20119;-74
2023/08/21 08:51:06;;;;;;;5.90;2.20;;;24.20;99.90;;;;;;5086731;28;20039;-74
2023/08/21 08:53:32;;;;;;;5.72;1.80;;;24.30;99.90;;;;;;5084979;28;20123;-75
2023/08/21 08:55:58;;;;;;;5.85;1.98;;;24.40;99.90;;;;;;5079071;28;20117;-74
2023/08/21 08:58:24;;;;;;;5.72;1.67;;;24.40;99.90;;;;;;5089016;28;20044;-76
2023/08/21 09:00:50;;;;;;;4.03;1.50;;;24.50;99.90;;;;;;5092953;28;20173;-75
2023/08/21 09:03:16;;;;;;;5.68;2.17;;;24.50;99.90;;;;;;5095872;28;20039;-74
2023/08/21 09:05:42;;;;;;;3.75;1.85;;;24.50;99.90;;;;;;5089836;28;20521;-76
2023/08/21 09:08:12;;;;;;;5.15;1.67;;;24.60;99.90;;;;;;5094494;28;20087;-75
2023/08/21 09:10:39;;;;;;;5.10;1.38;;;24.80;99.90;;;;;;5092360;28;20409;-75
2023/08/21 09:13:19;;;;;;;3.45;1.40;;;24.90;99.90;;;;;;5093772;28;20040;-75
2023/08/21 09:15:47;;;;;;;4.13;1.35;;;25.00;99.90;;;;;;5099379;28;20054;-75
2023/08/21 09:18:14;;;;;;;4.32;1.50;;;25.00;99.90;;;;;;5085762;28;20064;-76
2023/08/21 09:20:41;;;;;;;5.07;1.20;;;25.00;99.90;;;;;;5081807;28;20043;-75
2023/08/21 09:23:07;;;;;;;4.38;1.67;;;25.00;99.90;;;;;;5087097;28;20040;-75
2023/08/21 09:25:38;;;;;;;4.10;1.38;;;25.00;99.90;;;;;;5093184;28;20044;-75
2023/08/21 09:28:06;;;;;;;3.88;1.48;;;25.10;99.90;;;;;;5094443;28;20040;-76
2023/08/21 09:30:53;;;;;;;3.30;1.50;;;25.10;99.90;;;;;;5087232;28;20039;-75
2023/08/21 09:33:24;;;;;;;5.30;1.60;;;25.20;99.90;;;;;;5085334;28;20362;-76
2023/08/21 09:35:54;;;;;;;3.75;1.60;;;25.20;98.40;;;;;;5064856;28;20664;-76
2023/08/21 09:38:19;;;;;;;4.60;1.50;;;25.10;98.80;;;;;;5080637;28;20096;-75
2023/08/21 09:40:53;;;;;;;4.72;1.23;;;25.20;99.60;;;;;;5087082;28;20044;-75
2023/08/21 09:43:21;;;;;;;4.50;1.42;;;25.30;99.60;;;;;;5113225;27;20111;-76
2023/08/21 09:45:49;;;;;;;3.55;1.25;;;25.40;99.70;;;;;;5087080;28;20044;-76
2023/08/21 09:48:14;;;;;;;;;;;25.50;99.10;;;;;;5079614;28;20490;-76
2023/08/21 09:50:40;;;;;;;5.28;1.52;;;25.60;99.30;;;;;;5092323;28;19920;-76
2023/08/21 09:53:06;;;;;;;3.70;1.50;;;25.70;99.90;;;;;;5091018;28;20028;-75
2023/08/21 09:55:32;;;;;;;3.33;1.50;;;25.80;99.30;;;;;;5093472;28;20497;-78
2023/08/21 09:57:59;;;;;;;3.08;1.42;;;25.80;98.80;;;;;;5099589;28;20401;-76
2023/08/21 10:00:34;;;;;;;7.80;1.40;;;25.90;98.90;;;;;;5087214;28;20046;-75
2023/08/21 10:03:10;;;;;;;4.00;1.40;;;25.90;97.90;;;;;;5090131;28;20132;-76
2023/08/21 10:05:37;;;;;;;6.10;1.40;;;26.00;97.20;;;;;;5082494;28;20126;-76
2023/08/21 10:08:04;;;;;;;4.60;1.50;;;26.00;97.30;;;;;;5083189;28;20371;-74
2023/08/21 10:10:32;;;;;;;2.92;1.23;;;26.10;97.60;;;;;;5094361;28;20051;-77
2023/08/21 10:12:59;;;;;;;5.30;1.58;;;26.10;97.40;;;;;;5095080;28;20159;-75
2023/08/21 10:15:25;;;;;;;5.00;1.40;;;26.30;97.30;;;;;;5091063;28;20510;-76
2023/08/21 10:17:51;;;;;;;4.82;1.40;;;26.40;97.20;;;;;;5078262;28;20506;-75
2023/08/21 10:20:24;;;;;;;7.70;1.60;;;26.50;97.50;;;;;;5088991;28;20078;-76
2023/08/21 10:22:54;;;;;;;7.10;1.65;;;26.70;96.80;;;;;;5083413;28;20036;-76
2023/08/21 10:25:25;;;;;;;3.97;1.63;;;26.80;96.60;;;;;;5094450;28;20089;-75
2023/08/21 10:27:58;;;;;;;3.20;1.60;;;26.80;95.50;;;;;;5083935;28;20055;-74
2023/08/21 10:30:25;;;;;;;5.93;1.92;;;26.90;95.70;;;;;;5082764;28;20052;-75
2023/08/21 10:32:53;;;;;;;5.40;1.80;;;27.00;95.30;;;;;;5084237;28;20097;-76
2023/08/21 10:35:25;;;;;;;8.95;1.60;;;27.10;95.30;;;;;;5089802;28;20044;-75
2023/08/21 10:38:16;;;;;;;6.13;2.00;;;27.10;95.60;;;;;;5083767;28;20515;-75
2023/08/21 10:41:08;;;;;;;5.80;1.60;;;27.30;94.30;;;;;;5091828;28;20430;-75
2023/08/21 10:43:52;;;;;;;6.53;1.67;;;27.30;93.10;;;;;;5092657;28;20443;-75
2023/08/21 10:46:18;;;;;;;5.25;1.75;;;27.40;92.90;;;;;;5091627;28;20050;-75
2023/08/21 10:48:43;;;;;;;4.63;1.92;;;27.50;94.20;;;;;;5072920;28;20052;-75
2023/08/21 10:51:09;;;;;;;3.50;1.50;;;27.70;93.70;;;;;;5094767;28;20031;-75
2023/08/21 10:53:36;;;;;;;4.22;1.55;;;27.80;93.10;;;;;;5092500;28;20116;-75
2023/08/21 10:56:03;;;;;;;6.90;1.47;;;27.90;92.30;;;;;;5093505;28;20407;-75
2023/08/21 10:58:34;;;;;;;6.53;1.50;;;28.00;92.50;;;;;;5091331;28;20056;-74
2023/08/21 11:00:59;;;;;;;4.50;1.55;;;28.20;92.30;;;;;;5084883;28;20036;-74
2023/08/21 11:03:25;;;;;;;6.25;1.38;;;28.40;91.40;;;;;;5081150;28;20055;-75
2023/08/21 11:06:04;;;;;;;7.50;1.55;;;28.50;91.80;;;;;;5094814;28;20047;-76
2023/08/21 11:08:32;;;;;;;5.50;1.60;;;28.80;92.20;;;;;;5097463;28;20048;-75
2023/08/21 11:11:00;;;;;;;2.50;1.20;;;29.00;91.20;;;;;;5091039;28;20555;-76
2023/08/21 11:13:26;;;;;;;4.20;1.50;;;29.20;90.50;;;;;;5076084;28;20035;-75
2023/08/21 11:16:18;;;;;;;5.45;1.95;;;29.40;90.10;;;;;;5083718;28;20032;-75
2023/08/21 11:18:46;;;;;;;5.82;1.60;;;29.50;86.90;;;;;;5082965;28;20036;-75
2023/08/21 11:21:12;;;;;;;4.40;1.48;;;29.60;86.90;;;;;;5091296;28;20047;-76
2023/08/21 11:23:40;;;;;;;3.28;1.40;;;29.60;87.00;;;;;;5084704;28;20058;-76
2023/08/21 11:26:09;;;;;;;4.10;2.13;;;29.80;87.50;;;;;;5092980;28;20032;-76
2023/08/21 11:28:35;;;;;;;4.47;1.42;;;29.90;87.90;;;;;;5091126;28;20173;-76
2023/08/21 11:31:01;;;;;;;3.38;1.63;;;30.10;88.00;;;;;;5086848;28;20111;-76
2023/08/21 11:33:28;;;;;;;5.22;1.35;;;30.20;87.20;;;;;;5072153;28;20111;-76
2023/08/21 11:35:57;;;;;;;3.50;1.30;;;30.40;86.60;;;;;;5085485;28;20182;-76
2023/08/21 11:38:25;;;;;;;3.35;1.48;;;30.10;84.70;;;;;;5087030;28;20048;-75
2023/08/21 11:40:56;;;;;;;5.78;1.75;;;30.00;86.20;;;;;;5090535;28;20040;-76
2023/08/21 11:43:23;;;;;;;4.50;1.67;;;30.10;86.20;;;;;;5083498;28;20052;-76
2023/08/21 11:45:48;;;;;;;10.93;1.70;;;30.10;85.40;;;;;;5090498;28;20044;-75
2023/08/21 11:48:14;;;;;;;3.88;1.70;;;30.30;84.70;;;;;;5093351;28;20047;-75
2023/08/21 11:50:40;;;;;;;5.30;1.70;;;30.30;82.50;;;;;;5080399;28;20044;-75
2023/08/21 11:53:06;;;;;;;3.70;1.48;;;30.30;83.30;;;;;;5081397;28;20039;-75
2023/08/21 11:55:31;;;;;;;4.97;1.65;;;30.40;83.80;;;;;;5094560;28;20051;-77
2023/08/21 11:57:59;;;;;;;4.18;1.52;;;30.40;83.50;;;;;;5096868;28;20126;-75
2023/08/21 12:00:29;;;;;;;5.25;1.63;;;30.40;84.20;;;;;;5084238;28;20076;-75
2023/08/21 12:02:57;;;;;;;7.80;2.38;;;30.00;82.80;;;;;;5081115;28;20131;-75
2023/08/21 12:05:23;;;;;;;7.63;1.88;;;29.50;82.50;;;;;;5095090;28;20036;-74
2023/08/21 12:07:50;;;;;;;5.35;1.80;;;29.10;81.80;;;;;;5090952;28;20049;-74
2023/08/21 12:10:25;;;;;;;4.22;1.55;;;28.90;84.50;;;;;;5087032;28;20440;-75
2023/08/21 12:12:51;;;;;;;4.88;1.75;;;29.00;85.60;;;;;;5087178;28;20043;-74
2023/08/21 12:15:17;;;;;;;6.05;1.63;;;29.20;86.00;;;;;;5089141;28;20043;-74
2023/08/21 12:17:43;;;;;;;4.68;1.80;;;29.20;83.10;;;;;;5085379;28;20100;-74
2023/08/21 12:20:12;;;;;;;4.07;1.70;;;29.00;84.40;;;;;;5079602;28;20388;-75
2023/08/21 12:22:38;;;;;;;7.22;2.17;;;28.70;83.30;;;;;;5081359;28;20051;-74
2023/08/21 12:25:04;;;;;;;7.20;1.97;;;28.40;83.30;;;;;;5106007;28;20393;-75
2023/08/21 12:27:30;;;;;;;9.73;3.70;;;28.30;84.80;;;;;;5090967;28;20055;-75
2023/08/21 12:29:56;;;;;;;8.23;2.50;;;28.40;86.60;;;;;;5072618;28;20044;-75
2023/08/21 12:32:22;;;;;;;5.22;2.03;;;28.40;87.40;;;;;;5078453;28;20115;-75
2023/08/21 12:34:48;;;;;;;4.63;1.80;;;28.30;87.90;;;;;;5085959;28;20052;-74
2023/08/21 12:37:14;;;;;;;7.88;2.33;;;28.50;86.00;;;;;;5080917;28;20040;-74
2023/08/21 12:39:40;;;;;;;7.95;2.22;;;28.80;87.80;;;;;;5079630;28;20079;-73
2023/08/21 12:42:07;;;;;;;4.80;1.52;;;29.20;87.90;;;;;;5084247;28;20432;-73